Huvudsida
METAR-TAF:

METAR-TAF

Flygplatser :

Tartus flygplats

Tartu, Estland

latitud: 58-18N, longitud: 026-44E, höjd: 59 m

Aktuellt väderrapport

Denna rapport gjordes för 58 minuter sedan, klockan 11:50 UTC
Vind 10 kt från sydväst
Temperatur 11°C
Fuktighet 100%
Tryck 1009 hPa
Sikt 10 km eller mer
Brutna moln på en höjd av 700 ft
Mulet på en höjd av 1200 ft

METAR: EETU 221150Z 23010KT 9999 BKN007 OVC012 11/11 Q1009

Tid: 15:48 (12:48 UTC)

Väderprognos

Denna rapport gjordes för 16 timmar och 48 minuter sedan, klockan 20:00 UTC
Prognos gäller från 21 kl. 21 UTC till 22 kl. 03 UTC
Vind 15 kt från syd/sydväst
Sikt 10 km eller mer
Spridda moln på en höjd av 800 ft
Blir
från 21 kl. 22 UTC till 21 kl. 24 UTC
Brutna moln på en höjd av 500 ft
Spridda moln på en höjd av 1300 ft, Cumulonimbus.
Sannolikhet 30% :
Temporärt
från 22 kl. 00 UTC till 22 kl. 03 UTC
Sikt: 2000 m
fuktdis

TAF: EETU 212000Z 2121/2203 21015KT 9999 SCT008 BECMG 2122/2124 BKN005 SCT013CB PROB30 TEMPO 2200/2203 2000 BR

Aktuella väderrapporter och prognoser från 4000 flygplatser (METAR- och TAF-rapporter).

De tillgängliga stationerna syns som gula och röda prickar på kartan.

För musen över prickarna för att se namnen på stationerna.

Klicka sedan för att få väderrapporter och prognoser.

För att ändra kartan: Klicka på de gröna knapparna med ett svart kors på för att zooma in; den gröna knappen med ett streck på för att zooma ut; eller på de gröna pilarna för angränsande kartor.


METAR-TAF: